Dream Diva — 3EKW6 — position and weather

sailwx.info

Track history (hours):
 
Tides and Currents Weather Stations Pressure Air Temp Water Temp Dewpoint Dewpoint Depression Visibility Wind Speed Wind Dir Waves Ship Positions

Dream Diva

Last reported at 2015-May-08 14:19 UTC. Time now 2015-May-24 05:10 UTC.
Position N 49°14' W 127°18'.
Warning: this ship's position is 15 days out of date.

Length 186 m; draft 7.3 m.

Type: Cargo ship. MMSI: 372856000.

Date/timePositionNaut miles runAvg speedWind from/ knotsBaromVisibWave heightAir tempDewpointWater temp
2015-May-08 14:19N 49°14' W 127°18'1216.0
2015-May-08 13:33N 49°09' W 127°01'1616.1
2015-May-08 12:34N 49°02' W 126°39'1615.8
2015-May-08 11:34N 48°55' W 126°17'1716.5
2015-May-08 10:33N 48°47' W 125°55'1716.7
2015-May-08 09:34N 48°40' W 125°32'1716.9
2015-May-08 08:34N 48°33' W 125°09'1716.9
2015-May-08 07:34N 48°30' W 124°44'1717.3
2015-May-08 06:34N 48°24' W 124°20'1717.0
2015-May-08 05:33N 48°18' W 123°56'1716.6
2015-May-08 04:34N 48°16' W 123°31'1111.5
2015-May-08 03:33N 48°23' W 123°17'1514.9
2015-May-08 02:33N 48°38' W 123°15'1414.1
2015-May-08 01:33N 48°49' W 123°01'1716.6
2015-May-08 00:33N 49°00' W 123°18'8 8.0
2015-May-07 23:34N 49°08' W 123°13'6 5.9
2015-May-07 22:33N 49°08' W 123°04'0 0.0
2015-May-07 21:32N 49°08' W 123°04'0 0.0
2015-May-07 20:32N 49°08' W 123°04'0 0.0
2015-May-07 19:32N 49°08' W 123°04'0 0.0
2015-May-07 18:32N 49°08' W 123°04'0 0.0
2015-May-07 17:32N 49°08' W 123°04'0 0.0
2015-May-07 16:32N 49°08' W 123°04'0 0.0
2015-May-07 15:32N 49°08' W 123°04'0 0.0
2015-May-07 14:32N 49°08' W 123°04'0 0.0
2015-May-07 13:32N 49°08' W 123°04'0 0.0
2015-May-07 12:32N 49°08' W 123°04'0 0.0
2015-May-07 11:32N 49°08' W 123°04'0 0.0
2015-May-07 10:33N 49°08' W 123°04'5 5.5
2015-May-07 09:33N 49°08' W 123°12'6 6.4
2015-May-07 08:33N 49°02' W 123°17'1616.4
2015-May-07 07:33N 48°50' W 123°00'1414.3
2015-May-07 06:34N 48°39' W 123°14'1515.4
2015-May-07 05:33N 48°24' W 123°13'9 9.0
2015-May-07 04:33N 48°19' W 123°25'7 7.1
2015-May-07 03:33N 48°12' W 123°25'5 5.1
2015-May-07 02:33N 48°09' W 123°18'1515.2
2015-May-07 01:33N 48°12' W 122°55'1312.9
2015-May-07 00:31N 48°05' W 122°39'1414.3
2015-May-06 23:33N 47°53' W 122°28'1515.1
2015-May-06 22:33N 47°38' W 122°26'5 4.7
2015-May-06 21:33N 47°35' W 122°22'0 0.0
2015-May-06 20:29N 47°35' W 122°22'0 0.0
2015-May-06 19:32N 47°35' W 122°22'0 0.0
2015-May-06 18:32N 47°35' W 122°22'0 0.0
2015-May-06 17:26N 47°35' W 122°22'0 0.0
2015-May-06 16:32N 47°35' W 122°22'0 0.0
2015-May-06 15:32N 47°35' W 122°22'0 0.0
2015-May-06 14:26N 47°35' W 122°22'0 0.0
2015-May-06 13:32N 47°35' W 122°22'0 0.0
2015-May-06 12:32N 47°35' W 122°22'0 0.0
2015-May-06 11:32N 47°35' W 122°22'0 0.0
2015-May-06 10:32N 47°35' W 122°22'0 0.0
2015-May-06 09:29N 47°35' W 122°22'0 0.0
2015-May-06 08:32N 47°35' W 122°22'0 0.0
2015-May-06 07:32N 47°35' W 122°22'0 0.0
2015-May-06 06:32N 47°35' W 122°22'0 0.0
2015-May-06 05:32N 47°35' W 122°22'0 0.0
2015-May-06 04:32N 47°35' W 122°22'0 0.0
2015-May-06 03:32N 47°35' W 122°22'0 0.0
2015-May-06 02:32N 47°35' W 122°22'0 0.0
2015-May-06 01:32N 47°35' W 122°22'0 0.0
2015-May-06 00:32N 47°35' W 122°22'0 0.0
2015-May-05 23:32N 47°35' W 122°22'0 0.0
2015-May-05 22:32N 47°35' W 122°22'0 0.0
2015-May-05 21:26N 47°35' W 122°22'0 0.0
2015-May-05 20:32N 47°35' W 122°22'0 0.0
2015-May-05 19:32N 47°35' W 122°22'0 0.0
2015-May-05 18:29N 47°35' W 122°22'0 0.0
2015-May-05 17:32N 47°35' W 122°22'0 0.0
2015-May-05 16:32N 47°35' W 122°22'0 0.0
2015-May-05 15:32N 47°35' W 122°22'0 0.0
2015-May-05 14:32N 47°35' W 122°22'0 0.0
2015-May-05 13:32N 47°35' W 122°22'0 0.0
2015-May-05 12:29N 47°35' W 122°22'0 0.0
2015-May-05 11:32N 47°35' W 122°22'0 0.0
2015-May-05 10:32N 47°35' W 122°22'0 0.0
2015-May-05 09:32N 47°35' W 122°22'0 0.0
2015-May-05 08:32N 47°35' W 122°22'0 0.0
2015-May-05 07:32N 47°35' W 122°22'0 0.0
2015-May-05 06:32N 47°35' W 122°22'0 0.0
2015-May-05 05:32N 47°35' W 122°22'0 0.0
2015-May-05 04:29N 47°35' W 122°22'0 0.1
2015-May-05 03:34N 47°35' W 122°22'3 3.1
2015-May-05 02:33N 47°34' W 122°26'1212.2
2015-May-05 01:34N 47°22' W 122°23'6 5.7
2015-May-05 00:34N 47°16' W 122°23'1 0.2
2015-May-04 22:22N 47°16' W 122°23'0 0.0
2015-May-04 21:10N 47°16' W 122°23'0 0.0
2015-May-04 20:10N 47°16' W 122°23'0 0.0
2015-May-04 19:16N 47°16' W 122°23'0 0.0
2015-May-04 18:28N 47°16' W 122°23'0 0.0
2015-May-04 17:22N 47°16' W 122°23'0 0.0
2015-May-04 14:22N 47°16' W 122°23'0 0.0
2015-May-04 04:10N 47°16' W 122°23'0 0.0
2015-May-04 03:28N 47°16' W 122°23'0 0.1
2015-May-04 02:29N 47°16' W 122°23'5 4.9
2015-May-04 01:33N 47°19' W 122°28'1211.9
2015-May-04 00:33N 47°30' W 122°26'1818.1
2015-May-03 23:33N 47°48' W 122°28'1818.4
2015-May-03 22:33N 48°05' W 122°40'1818.1
2015-May-03 21:33N 48°12' W 123°05'1413.9
2015-May-03 20:33N 48°11' W 123°26'1010.5
2015-May-03 19:34N 48°14' W 123°41'1211.6
2015-May-03 18:29N 48°15' W 123°60'4212.3
2015-May-03 15:07N 48°29' W 124°58'814.4
2015-May-03 14:33N 48°22' W 125°05'1615.6
2015-May-03 13:33N 48°08' W 125°14'1515.3
2015-May-03 12:34N 47°54' W 125°23'1514.2
2015-May-03 11:31N 47°39' W 125°19'1414.5
2015-May-03 10:34N 47°26' W 125°14'1514.6
2015-May-03 09:33N 47°12' W 125°07'1514.5
2015-May-03 08:34N 46°58' W 124°60'1414.2
2015-May-03 07:34N 46°47' W 124°48'1414.0
2015-May-03 06:33N 46°35' W 124°36'1413.9
2015-May-03 05:33N 46°24' W 124°25'1414.0
2015-May-03 04:34N 46°13' W 124°11'1212.0
2015-May-03 03:34N 46°11' W 123°54'1110.9
2015-May-03 02:33N 46°15' W 123°40'1110.5
2015-May-03 01:34N 46°11' W 123°26'1212.3
2015-May-03 00:33N 46°11' W 123°08'1212.4
2015-May-02 23:33N 46°04' W 122°53'1212.3
2015-May-02 22:34N 45°53' W 122°48'1212.1
2015-May-02 21:33N 45°41' W 122°46'2 1.7
2015-May-02 20:29N 45°39' W 122°45'0 0.0
2015-May-02 19:29N 45°39' W 122°45'0 0.0
2015-May-02 18:29N 45°39' W 122°45'0 0.0
2015-May-02 17:32N 45°39' W 122°45'0 0.0
2015-May-02 16:32N 45°39' W 122°45'0 0.0
2015-May-02 15:26N 45°39' W 122°45'0 0.0
2015-May-02 14:32N 45°39' W 122°45'0 0.0
2015-May-02 13:29N 45°39' W 122°45'0 0.0
2015-May-02 12:32N 45°39' W 122°45'0 0.0
2015-May-02 11:20N 45°39' W 122°45'0 0.0
2015-May-02 10:32N 45°39' W 122°45'0 0.0
2015-May-02 09:29N 45°39' W 122°45'0 0.0
2015-May-02 08:32N 45°39' W 122°45'0 0.1
2015-May-02 07:33N 45°39' W 122°45'9 9.4
2015-May-02 06:33N 45°48' W 122°47'1212.5
2015-May-02 05:33N 46°00' W 122°51'1111.2
2015-May-02 04:33N 46°09' W 123°02'1212.1
2015-May-02 03:33N 46°08' W 123°19'1010.2
2015-May-02 02:34N 46°16' W 123°29'1312.8
2015-May-02 01:33N 46°13' W 123°47'8 7.6
2015-May-02 00:33N 46°13' W 123°58'1212.0
2015-May-01 23:33N 46°12' W 124°15'1212.2
2015-May-01 22:34N 46°14' W 124°32'1616.1
2015-May-01 21:34N 46°16' W 124°55'1615.9
2015-May-01 20:34N 46°19' W 125°18'3415.9
2015-May-01 18:26N 46°24' W 126°06'  
Track history (hours):
 
Tides and Currents Weather Stations Pressure Air Temp Water Temp Dewpoint Dewpoint Depression Visibility Wind Speed Wind Dir Waves Ship Positions

Dream Diva

Last reported at 2015-May-08 14:19 UTC. Time now 2015-May-24 05:10 UTC.
Position N 49°14' W 127°18'.
Warning: this ship's position is 15 days out of date.

Length 186 m; draft 7.3 m.

Type: Cargo ship. MMSI: 372856000.

Date/timePositionNaut miles runAvg speedWind from/ knotsBaromVisibWave heightAir tempDewpointWater temp
2015-May-08 14:19N 49°14' W 127°18'1216.0
2015-May-08 13:33N 49°09' W 127°01'1616.1
2015-May-08 12:34N 49°02' W 126°39'1615.8
2015-May-08 11:34N 48°55' W 126°17'1716.5
2015-May-08 10:33N 48°47' W 125°55'1716.7
2015-May-08 09:34N 48°40' W 125°32'1716.9
2015-May-08 08:34N 48°33' W 125°09'1716.9
2015-May-08 07:34N 48°30' W 124°44'1717.3
2015-May-08 06:34N 48°24' W 124°20'1717.0
2015-May-08 05:33N 48°18' W 123°56'1716.6
2015-May-08 04:34N 48°16' W 123°31'1111.5
2015-May-08 03:33N 48°23' W 123°17'1514.9
2015-May-08 02:33N 48°38' W 123°15'1414.1
2015-May-08 01:33N 48°49' W 123°01'1716.6
2015-May-08 00:33N 49°00' W 123°18'8 8.0
2015-May-07 23:34N 49°08' W 123°13'6 5.9
2015-May-07 22:33N 49°08' W 123°04'0 0.0
2015-May-07 21:32N 49°08' W 123°04'0 0.0
2015-May-07 20:32N 49°08' W 123°04'0 0.0
2015-May-07 19:32N 49°08' W 123°04'0 0.0
2015-May-07 18:32N 49°08' W 123°04'0 0.0
2015-May-07 17:32N 49°08' W 123°04'0 0.0
2015-May-07 16:32N 49°08' W 123°04'0 0.0
2015-May-07 15:32N 49°08' W 123°04'0 0.0
2015-May-07 14:32N 49°08' W 123°04'0 0.0
2015-May-07 13:32N 49°08' W 123°04'0 0.0
2015-May-07 12:32N 49°08' W 123°04'0 0.0
2015-May-07 11:32N 49°08' W 123°04'0 0.0
2015-May-07 10:33N 49°08' W 123°04'5 5.5
2015-May-07 09:33N 49°08' W 123°12'6 6.4
2015-May-07 08:33N 49°02' W 123°17'1616.4
2015-May-07 07:33N 48°50' W 123°00'1414.3
2015-May-07 06:34N 48°39' W 123°14'1515.4
2015-May-07 05:33N 48°24' W 123°13'9 9.0
2015-May-07 04:33N 48°19' W 123°25'7 7.1
2015-May-07 03:33N 48°12' W 123°25'5 5.1
2015-May-07 02:33N 48°09' W 123°18'1515.2
2015-May-07 01:33N 48°12' W 122°55'1312.9
2015-May-07 00:31N 48°05' W 122°39'1414.3
2015-May-06 23:33N 47°53' W 122°28'1515.1
2015-May-06 22:33N 47°38' W 122°26'5 4.7
2015-May-06 21:33N 47°35' W 122°22'0 0.0
2015-May-06 20:29N 47°35' W 122°22'0 0.0
2015-May-06 19:32N 47°35' W 122°22'0 0.0
2015-May-06 18:32N 47°35' W 122°22'0 0.0
2015-May-06 17:26N 47°35' W 122°22'0 0.0
2015-May-06 16:32N 47°35' W 122°22'0 0.0
2015-May-06 15:32N 47°35' W 122°22'0 0.0
2015-May-06 14:26N 47°35' W 122°22'0 0.0
2015-May-06 13:32N 47°35' W 122°22'0 0.0
2015-May-06 12:32N 47°35' W 122°22'0 0.0
2015-May-06 11:32N 47°35' W 122°22'0 0.0
2015-May-06 10:32N 47°35' W 122°22'0 0.0
2015-May-06 09:29N 47°35' W 122°22'0 0.0
2015-May-06 08:32N 47°35' W 122°22'0 0.0
2015-May-06 07:32N 47°35' W 122°22'0 0.0
2015-May-06 06:32N 47°35' W 122°22'0 0.0
2015-May-06 05:32N 47°35' W 122°22'0 0.0
2015-May-06 04:32N 47°35' W 122°22'0 0.0
2015-May-06 03:32N 47°35' W 122°22'0 0.0
2015-May-06 02:32N 47°35' W 122°22'0 0.0
2015-May-06 01:32N 47°35' W 122°22'0 0.0
2015-May-06 00:32N 47°35' W 122°22'0 0.0
2015-May-05 23:32N 47°35' W 122°22'0 0.0
2015-May-05 22:32N 47°35' W 122°22'0 0.0
2015-May-05 21:26N 47°35' W 122°22'0 0.0
2015-May-05 20:32N 47°35' W 122°22'0 0.0
2015-May-05 19:32N 47°35' W 122°22'0 0.0
2015-May-05 18:29N 47°35' W 122°22'0 0.0
2015-May-05 17:32N 47°35' W 122°22'0 0.0
2015-May-05 16:32N 47°35' W 122°22'0 0.0
2015-May-05 15:32N 47°35' W 122°22'0 0.0
2015-May-05 14:32N 47°35' W 122°22'0 0.0
2015-May-05 13:32N 47°35' W 122°22'0 0.0
2015-May-05 12:29N 47°35' W 122°22'0 0.0
2015-May-05 11:32N 47°35' W 122°22'0 0.0
2015-May-05 10:32N 47°35' W 122°22'0 0.0
2015-May-05 09:32N 47°35' W 122°22'0 0.0
2015-May-05 08:32N 47°35' W 122°22'0 0.0
2015-May-05 07:32N 47°35' W 122°22'0 0.0
2015-May-05 06:32N 47°35' W 122°22'0 0.0
2015-May-05 05:32N 47°35' W 122°22'0 0.0
2015-May-05 04:29N 47°35' W 122°22'0 0.1
2015-May-05 03:34N 47°35' W 122°22'3 3.1
2015-May-05 02:33N 47°34' W 122°26'1212.2
2015-May-05 01:34N 47°22' W 122°23'6 5.7
2015-May-05 00:34N 47°16' W 122°23'1 0.2
2015-May-04 22:22N 47°16' W 122°23'0 0.0
2015-May-04 21:10N 47°16' W 122°23'0 0.0
2015-May-04 20:10N 47°16' W 122°23'0 0.0
2015-May-04 19:16N 47°16' W 122°23'0 0.0
2015-May-04 18:28N 47°16' W 122°23'0 0.0
2015-May-04 17:22N 47°16' W 122°23'0 0.0
2015-May-04 14:22N 47°16' W 122°23'0 0.0
2015-May-04 04:10N 47°16' W 122°23'0 0.0
2015-May-04 03:28N 47°16' W 122°23'0 0.1
2015-May-04 02:29N 47°16' W 122°23'5 4.9
2015-May-04 01:33N 47°19' W 122°28'1211.9
2015-May-04 00:33N 47°30' W 122°26'1818.1
2015-May-03 23:33N 47°48' W 122°28'1818.4
2015-May-03 22:33N 48°05' W 122°40'1818.1
2015-May-03 21:33N 48°12' W 123°05'1413.9
2015-May-03 20:33N 48°11' W 123°26'1010.5
2015-May-03 19:34N 48°14' W 123°41'1211.6
2015-May-03 18:29N 48°15' W 123°60'4212.3
2015-May-03 15:07N 48°29' W 124°58'814.4
2015-May-03 14:33N 48°22' W 125°05'1615.6
2015-May-03 13:33N 48°08' W 125°14'1515.3
2015-May-03 12:34N 47°54' W 125°23'1514.2
2015-May-03 11:31N 47°39' W 125°19'1414.5
2015-May-03 10:34N 47°26' W 125°14'1514.6
2015-May-03 09:33N 47°12' W 125°07'1514.5
2015-May-03 08:34N 46°58' W 124°60'1414.2
2015-May-03 07:34N 46°47' W 124°48'1414.0
2015-May-03 06:33N 46°35' W 124°36'1413.9
2015-May-03 05:33N 46°24' W 124°25'1414.0
2015-May-03 04:34N 46°13' W 124°11'1212.0
2015-May-03 03:34N 46°11' W 123°54'1110.9
2015-May-03 02:33N 46°15' W 123°40'1110.5
2015-May-03 01:34N 46°11' W 123°26'1212.3
2015-May-03 00:33N 46°11' W 123°08'1212.4
2015-May-02 23:33N 46°04' W 122°53'1212.3
2015-May-02 22:34N 45°53' W 122°48'1212.1
2015-May-02 21:33N 45°41' W 122°46'2 1.7
2015-May-02 20:29N 45°39' W 122°45'0 0.0
2015-May-02 19:29N 45°39' W 122°45'0 0.0
2015-May-02 18:29N 45°39' W 122°45'0 0.0
2015-May-02 17:32N 45°39' W 122°45'0 0.0
2015-May-02 16:32N 45°39' W 122°45'0 0.0
2015-May-02 15:26N 45°39' W 122°45'0 0.0
2015-May-02 14:32N 45°39' W 122°45'0 0.0
2015-May-02 13:29N 45°39' W 122°45'0 0.0
2015-May-02 12:32N 45°39' W 122°45'0 0.0
2015-May-02 11:20N 45°39' W 122°45'0 0.0
2015-May-02 10:32N 45°39' W 122°45'0 0.0
2015-May-02 09:29N 45°39' W 122°45'0 0.0
2015-May-02 08:32N 45°39' W 122°45'0 0.1
2015-May-02 07:33N 45°39' W 122°45'9 9.4
2015-May-02 06:33N 45°48' W 122°47'1212.5
2015-May-02 05:33N 46°00' W 122°51'1111.2
2015-May-02 04:33N 46°09' W 123°02'1212.1
2015-May-02 03:33N 46°08' W 123°19'1010.2
2015-May-02 02:34N 46°16' W 123°29'1312.8
2015-May-02 01:33N 46°13' W 123°47'8 7.6
2015-May-02 00:33N 46°13' W 123°58'1212.0
2015-May-01 23:33N 46°12' W 124°15'1212.2
2015-May-01 22:34N 46°14' W 124°32'1616.1
2015-May-01 21:34N 46°16' W 124°55'1615.9
2015-May-01 20:34N 46°19' W 125°18'3415.9
2015-May-01 18:26N 46°24' W 126°06'  

Dump ship's entire track history